sensor_id;sensor_type;location;lat;lon;timestamp;P1;durP1;ratioP1;P2;durP2;ratioP2
46835;SDS011;32573;51.290;6.926;2023-08-12T00:00:03;7.15;;;3.40;;
46835;SDS011;32573;51.290;6.926;2023-08-12T00:02:40;6.50;;;3.35;;
46835;SDS011;32573;51.290;6.926;2023-08-12T00:05:10;5.75;;;3.22;;
46835;SDS011;32573;51.290;6.926;2023-08-12T00:07:39;6.60;;;3.45;;
46835;SDS011;32573;51.290;6.926;2023-08-12T00:10:11;5.03;;;2.97;;
46835;SDS011;32573;51.290;6.926;2023-08-12T00:12:40;6.50;;;3.10;;
46835;SDS011;32573;51.290;6.926;2023-08-12T00:15:09;5.65;;;3.15;;
46835;SDS011;32573;51.290;6.926;2023-08-12T00:17:38;6.53;;;3.60;;
46835;SDS011;32573;51.290;6.926;2023-08-12T00:20:09;5.47;;;2.90;;
46835;SDS011;32573;51.290;6.926;2023-08-12T00:22:39;7.32;;;3.45;;
46835;SDS011;32573;51.290;6.926;2023-08-12T00:25:08;6.80;;;3.38;;
46835;SDS011;32573;51.290;6.926;2023-08-12T00:27:38;6.25;;;3.47;;
46835;SDS011;32573;51.290;6.926;2023-08-12T00:30:07;7.00;;;3.40;;
46835;SDS011;32573;51.290;6.926;2023-08-12T00:32:36;6.28;;;3.13;;
46835;SDS011;32573;51.290;6.926;2023-08-12T00:35:05;6.43;;;3.20;;
46835;SDS011;32573;51.290;6.926;2023-08-12T00:37:34;6.57;;;3.50;;
46835;SDS011;32573;51.290;6.926;2023-08-12T00:40:03;5.85;;;3.22;;
46835;SDS011;32573;51.290;6.926;2023-08-12T00:42:33;6.32;;;3.42;;
46835;SDS011;32573;51.290;6.926;2023-08-12T00:45:03;7.10;;;3.35;;
46835;SDS011;32573;51.290;6.926;2023-08-12T00:47:37;6.35;;;3.40;;
46835;SDS011;32573;51.290;6.926;2023-08-12T00:50:06;6.43;;;3.28;;
46835;SDS011;32573;51.290;6.926;2023-08-12T00:52:36;6.78;;;3.25;;
46835;SDS011;32573;51.290;6.926;2023-08-12T00:55:05;6.43;;;3.15;;
46835;SDS011;32573;51.290;6.926;2023-08-12T00:57:34;6.38;;;3.17;;
46835;SDS011;32573;51.290;6.926;2023-08-12T01:00:05;7.05;;;3.65;;
46835;SDS011;32573;51.290;6.926;2023-08-12T01:02:35;5.93;;;3.35;;
46835;SDS011;32573;51.290;6.926;2023-08-12T01:05:04;6.60;;;3.50;;
46835;SDS011;32573;51.290;6.926;2023-08-12T01:07:34;6.72;;;3.30;;
46835;SDS011;32573;51.290;6.926;2023-08-12T01:10:03;5.97;;;3.00;;
46835;SDS011;32573;51.290;6.926;2023-08-12T01:12:34;5.85;;;2.83;;
46835;SDS011;32573;51.290;6.926;2023-08-12T01:15:13;5.97;;;3.05;;
46835;SDS011;32573;51.290;6.926;2023-08-12T01:17:44;5.53;;;2.80;;
46835;SDS011;32573;51.290;6.926;2023-08-12T01:20:15;5.25;;;2.92;;
46835;SDS011;32573;51.290;6.926;2023-08-12T01:22:45;5.88;;;3.10;;
46835;SDS011;32573;51.290;6.926;2023-08-12T01:25:16;6.35;;;3.28;;
46835;SDS011;32573;51.290;6.926;2023-08-12T01:27:45;6.40;;;3.10;;
46835;SDS011;32573;51.290;6.926;2023-08-12T01:30:14;5.80;;;2.97;;
46835;SDS011;32573;51.290;6.926;2023-08-12T01:32:45;7.05;;;2.97;;
46835;SDS011;32573;51.290;6.926;2023-08-12T01:35:23;6.10;;;3.17;;
46835;SDS011;32573;51.290;6.926;2023-08-12T01:37:58;6.07;;;3.00;;
46835;SDS011;32573;51.290;6.926;2023-08-12T01:40:31;5.78;;;3.10;;
46835;SDS011;32573;51.290;6.926;2023-08-12T01:43:02;6.13;;;3.30;;
46835;SDS011;32573;51.290;6.926;2023-08-12T01:45:31;5.90;;;3.15;;
46835;SDS011;32573;51.290;6.926;2023-08-12T01:48:01;5.50;;;3.28;;
46835;SDS011;32573;51.290;6.926;2023-08-12T01:50:30;5.60;;;2.97;;
46835;SDS011;32573;51.290;6.926;2023-08-12T01:52:58;6.05;;;3.30;;
46835;SDS011;32573;51.290;6.926;2023-08-12T01:55:29;5.43;;;3.00;;
46835;SDS011;32573;51.290;6.926;2023-08-12T01:57:59;5.47;;;3.00;;
46835;SDS011;32573;51.290;6.926;2023-08-12T02:00:27;5.15;;;2.80;;
46835;SDS011;32573;51.290;6.926;2023-08-12T02:02:56;7.30;;;3.25;;
46835;SDS011;32573;51.290;6.926;2023-08-12T02:05:25;5.90;;;3.13;;
46835;SDS011;32573;51.290;6.926;2023-08-12T02:07:53;5.85;;;2.92;;
46835;SDS011;32573;51.290;6.926;2023-08-12T02:10:22;5.00;;;2.88;;
46835;SDS011;32573;51.290;6.926;2023-08-12T02:12:52;6.28;;;3.10;;
46835;SDS011;32573;51.290;6.926;2023-08-12T02:15:22;6.35;;;2.85;;
46835;SDS011;32573;51.290;6.926;2023-08-12T02:17:51;4.93;;;2.63;;
46835;SDS011;32573;51.290;6.926;2023-08-12T02:20:20;6.43;;;3.03;;
46835;SDS011;32573;51.290;6.926;2023-08-12T02:22:48;6.75;;;3.10;;
46835;SDS011;32573;51.290;6.926;2023-08-12T02:25:17;4.70;;;2.80;;
46835;SDS011;32573;51.290;6.926;2023-08-12T02:27:45;5.72;;;3.30;;
46835;SDS011;32573;51.290;6.926;2023-08-12T02:30:14;6.00;;;3.00;;
46835;SDS011;32573;51.290;6.926;2023-08-12T02:32:44;5.13;;;2.63;;
46835;SDS011;32573;51.290;6.926;2023-08-12T02:35:13;5.00;;;2.75;;
46835;SDS011;32573;51.290;6.926;2023-08-12T02:37:42;5.53;;;3.00;;
46835;SDS011;32573;51.290;6.926;2023-08-12T02:40:10;5.68;;;3.08;;
46835;SDS011;32573;51.290;6.926;2023-08-12T02:42:39;6.80;;;3.10;;
46835;SDS011;32573;51.290;6.926;2023-08-12T02:45:08;4.80;;;2.83;;
46835;SDS011;32573;51.290;6.926;2023-08-12T02:47:37;6.07;;;2.67;;
46835;SDS011;32573;51.290;6.926;2023-08-12T02:50:08;5.65;;;3.08;;
46835;SDS011;32573;51.290;6.926;2023-08-12T02:52:37;5.40;;;2.95;;
46835;SDS011;32573;51.290;6.926;2023-08-12T02:55:05;6.95;;;3.15;;
46835;SDS011;32573;51.290;6.926;2023-08-12T02:57:34;5.40;;;2.75;;
46835;SDS011;32573;51.290;6.926;2023-08-12T03:00:03;5.40;;;2.90;;
46835;SDS011;32573;51.290;6.926;2023-08-12T03:02:32;6.15;;;2.90;;
46835;SDS011;32573;51.290;6.926;2023-08-12T03:05:01;6.40;;;2.90;;
46835;SDS011;32573;51.290;6.926;2023-08-12T03:07:31;5.20;;;2.80;;
46835;SDS011;32573;51.290;6.926;2023-08-12T03:10:00;5.53;;;2.75;;
46835;SDS011;32573;51.290;6.926;2023-08-12T03:12:29;6.55;;;3.00;;
46835;SDS011;32573;51.290;6.926;2023-08-12T03:14:57;5.72;;;2.80;;
46835;SDS011;32573;51.290;6.926;2023-08-12T03:17:27;5.30;;;3.00;;
46835;SDS011;32573;51.290;6.926;2023-08-12T03:19:56;5.38;;;2.75;;
46835;SDS011;32573;51.290;6.926;2023-08-12T03:22:28;5.00;;;2.60;;
46835;SDS011;32573;51.290;6.926;2023-08-12T03:24:58;5.70;;;2.80;;
46835;SDS011;32573;51.290;6.926;2023-08-12T03:27:27;5.15;;;2.80;;
46835;SDS011;32573;51.290;6.926;2023-08-12T03:29:56;5.95;;;3.00;;
46835;SDS011;32573;51.290;6.926;2023-08-12T03:32:25;4.85;;;2.83;;
46835;SDS011;32573;51.290;6.926;2023-08-12T03:34:55;5.53;;;3.05;;
46835;SDS011;32573;51.290;6.926;2023-08-12T03:37:24;5.07;;;2.90;;
46835;SDS011;32573;51.290;6.926;2023-08-12T03:39:55;5.82;;;3.10;;
46835;SDS011;32573;51.290;6.926;2023-08-12T03:42:25;6.40;;;3.47;;
46835;SDS011;32573;51.290;6.926;2023-08-12T03:44:53;6.28;;;3.22;;
46835;SDS011;32573;51.290;6.926;2023-08-12T03:47:22;6.30;;;3.50;;
46835;SDS011;32573;51.290;6.926;2023-08-12T03:49:51;6.00;;;3.42;;
46835;SDS011;32573;51.290;6.926;2023-08-12T03:52:20;6.43;;;3.30;;
46835;SDS011;32573;51.290;6.926;2023-08-12T03:54:49;6.82;;;3.50;;
46835;SDS011;32573;51.290;6.926;2023-08-12T03:57:17;8.07;;;3.88;;
46835;SDS011;32573;51.290;6.926;2023-08-12T03:59:48;6.72;;;3.53;;
46835;SDS011;32573;51.290;6.926;2023-08-12T04:02:16;6.13;;;3.47;;
46835;SDS011;32573;51.290;6.926;2023-08-12T04:04:45;7.57;;;3.80;;
46835;SDS011;32573;51.290;6.926;2023-08-12T04:07:13;7.53;;;3.83;;
46835;SDS011;32573;51.290;6.926;2023-08-12T04:09:42;7.20;;;3.47;;
46835;SDS011;32573;51.290;6.926;2023-08-12T04:12:10;7.35;;;3.25;;
46835;SDS011;32573;51.290;6.926;2023-08-12T04:14:39;6.28;;;3.63;;
46835;SDS011;32573;51.290;6.926;2023-08-12T04:17:09;5.85;;;3.55;;
46835;SDS011;32573;51.290;6.926;2023-08-12T04:19:38;6.22;;;3.40;;
46835;SDS011;32573;51.290;6.926;2023-08-12T04:22:07;5.28;;;3.30;;
46835;SDS011;32573;51.290;6.926;2023-08-12T04:24:36;6.78;;;3.65;;
46835;SDS011;32573;51.290;6.926;2023-08-12T04:27:05;5.93;;;3.30;;
46835;SDS011;32573;51.290;6.926;2023-08-12T04:29:34;6.45;;;3.45;;
46835;SDS011;32573;51.290;6.926;2023-08-12T04:32:03;6.75;;;3.22;;
46835;SDS011;32573;51.290;6.926;2023-08-12T04:34:34;7.15;;;3.33;;
46835;SDS011;32573;51.290;6.926;2023-08-12T04:37:03;6.75;;;3.40;;
46835;SDS011;32573;51.290;6.926;2023-08-12T04:39:31;5.35;;;3.00;;
46835;SDS011;32573;51.290;6.926;2023-08-12T04:42:00;5.95;;;3.13;;
46835;SDS011;32573;51.290;6.926;2023-08-12T04:44:29;6.20;;;3.30;;
46835;SDS011;32573;51.290;6.926;2023-08-12T04:46:57;6.20;;;3.33;;
46835;SDS011;32573;51.290;6.926;2023-08-12T04:49:26;5.90;;;3.42;;
46835;SDS011;32573;51.290;6.926;2023-08-12T04:51:56;6.43;;;3.50;;
46835;SDS011;32573;51.290;6.926;2023-08-12T04:54:25;5.97;;;3.33;;
46835;SDS011;32573;51.290;6.926;2023-08-12T04:56:55;5.20;;;3.08;;
46835;SDS011;32573;51.290;6.926;2023-08-12T04:59:24;5.78;;;3.40;;
46835;SDS011;32573;51.290;6.926;2023-08-12T05:01:53;6.43;;;3.40;;
46835;SDS011;32573;51.290;6.926;2023-08-12T05:04:33;5.85;;;3.20;;
46835;SDS011;32573;51.290;6.926;2023-08-12T05:07:03;6.13;;;3.20;;
46835;SDS011;32573;51.290;6.926;2023-08-12T05:09:31;6.55;;;3.28;;
46835;SDS011;32573;51.290;6.926;2023-08-12T05:12:00;4.95;;;2.90;;
46835;SDS011;32573;51.290;6.926;2023-08-12T05:14:28;6.03;;;2.92;;
46835;SDS011;32573;51.290;6.926;2023-08-12T05:16:57;5.60;;;2.85;;
46835;SDS011;32573;51.290;6.926;2023-08-12T05:19:25;4.68;;;2.55;;
46835;SDS011;32573;51.290;6.926;2023-08-12T05:21:54;5.07;;;2.70;;
46835;SDS011;32573;51.290;6.926;2023-08-12T05:24:24;4.70;;;2.33;;
46835;SDS011;32573;51.290;6.926;2023-08-12T05:26:53;4.45;;;2.50;;
46835;SDS011;32573;51.290;6.926;2023-08-12T05:29:23;4.35;;;2.45;;
46835;SDS011;32573;51.290;6.926;2023-08-12T05:31:51;5.97;;;2.85;;
46835;SDS011;32573;51.290;6.926;2023-08-12T05:34:20;4.93;;;2.50;;
46835;SDS011;32573;51.290;6.926;2023-08-12T05:36:48;4.38;;;2.22;;
46835;SDS011;32573;51.290;6.926;2023-08-12T05:39:17;4.80;;;2.35;;
46835;SDS011;32573;51.290;6.926;2023-08-12T05:41:46;4.80;;;2.47;;
46835;SDS011;32573;51.290;6.926;2023-08-12T05:44:15;5.40;;;2.60;;
46835;SDS011;32573;51.290;6.926;2023-08-12T05:46:44;4.53;;;2.33;;
46835;SDS011;32573;51.290;6.926;2023-08-12T05:49:12;4.65;;;2.50;;
46835;SDS011;32573;51.290;6.926;2023-08-12T05:51:41;4.20;;;2.30;;
46835;SDS011;32573;51.290;6.926;2023-08-12T05:54:09;5.00;;;2.38;;
46835;SDS011;32573;51.290;6.926;2023-08-12T05:56:38;4.50;;;2.22;;
46835;SDS011;32573;51.290;6.926;2023-08-12T05:59:07;4.30;;;2.30;;
46835;SDS011;32573;51.290;6.926;2023-08-12T06:01:36;5.30;;;2.67;;
46835;SDS011;32573;51.290;6.926;2023-08-12T06:04:05;4.43;;;2.30;;
46835;SDS011;32573;51.290;6.926;2023-08-12T06:06:33;4.50;;;2.13;;
46835;SDS011;32573;51.290;6.926;2023-08-12T06:09:04;4.93;;;2.40;;
46835;SDS011;32573;51.290;6.926;2023-08-12T06:11:33;4.13;;;2.10;;
46835;SDS011;32573;51.290;6.926;2023-08-12T06:14:01;3.90;;;1.90;;
46835;SDS011;32573;51.290;6.926;2023-08-12T06:16:31;4.40;;;2.10;;
46835;SDS011;32573;51.290;6.926;2023-08-12T06:19:00;4.90;;;2.10;;
46835;SDS011;32573;51.290;6.926;2023-08-12T06:21:28;4.40;;;2.03;;
46835;SDS011;32573;51.290;6.926;2023-08-12T06:23:56;4.38;;;2.00;;
46835;SDS011;32573;51.290;6.926;2023-08-12T06:26:25;3.95;;;1.92;;
46835;SDS011;32573;51.290;6.926;2023-08-12T06:28:53;4.45;;;1.95;;
46835;SDS011;32573;51.290;6.926;2023-08-12T06:31:22;3.67;;;1.98;;
46835;SDS011;32573;51.290;6.926;2023-08-12T06:33:52;4.35;;;1.80;;
46835;SDS011;32573;51.290;6.926;2023-08-12T06:36:20;3.75;;;1.90;;
46835;SDS011;32573;51.290;6.926;2023-08-12T06:38:49;4.50;;;2.10;;
46835;SDS011;32573;51.290;6.926;2023-08-12T06:41:17;4.10;;;2.20;;
46835;SDS011;32573;51.290;6.926;2023-08-12T06:43:46;3.50;;;1.90;;
46835;SDS011;32573;51.290;6.926;2023-08-12T06:46:14;3.67;;;1.98;;
46835;SDS011;32573;51.290;6.926;2023-08-12T06:48:43;4.03;;;2.03;;
46835;SDS011;32573;51.290;6.926;2023-08-12T06:51:13;4.32;;;1.98;;
46835;SDS011;32573;51.290;6.926;2023-08-12T06:53:41;5.72;;;2.50;;
46835;SDS011;32573;51.290;6.926;2023-08-12T06:56:10;3.80;;;1.85;;
46835;SDS011;32573;51.290;6.926;2023-08-12T06:58:38;4.07;;;2.03;;
46835;SDS011;32573;51.290;6.926;2023-08-12T07:01:07;4.63;;;2.30;;
46835;SDS011;32573;51.290;6.926;2023-08-12T07:03:37;4.63;;;2.00;;
46835;SDS011;32573;51.290;6.926;2023-08-12T07:06:06;4.47;;;2.20;;
46835;SDS011;32573;51.290;6.926;2023-08-12T07:08:35;3.35;;;1.92;;
46835;SDS011;32573;51.290;6.926;2023-08-12T07:11:04;4.05;;;1.98;;
46835;SDS011;32573;51.290;6.926;2023-08-12T07:13:33;4.40;;;2.08;;
46835;SDS011;32573;51.290;6.926;2023-08-12T07:16:01;3.95;;;2.10;;
46835;SDS011;32573;51.290;6.926;2023-08-12T07:18:30;4.22;;;2.10;;
46835;SDS011;32573;51.290;6.926;2023-08-12T07:20:58;4.20;;;2.15;;
46835;SDS011;32573;51.290;6.926;2023-08-12T07:23:27;3.95;;;2.15;;
46835;SDS011;32573;51.290;6.926;2023-08-12T07:25:57;4.00;;;2.10;;
46835;SDS011;32573;51.290;6.926;2023-08-12T07:28:25;4.35;;;2.10;;
46835;SDS011;32573;51.290;6.926;2023-08-12T07:30:54;4.32;;;2.28;;
46835;SDS011;32573;51.290;6.926;2023-08-12T07:33:22;4.15;;;2.13;;
46835;SDS011;32573;51.290;6.926;2023-08-12T07:35:51;3.92;;;2.00;;
46835;SDS011;32573;51.290;6.926;2023-08-12T07:38:20;4.72;;;2.42;;
46835;SDS011;32573;51.290;6.926;2023-08-12T07:40:48;4.43;;;2.40;;
46835;SDS011;32573;51.290;6.926;2023-08-12T07:43:18;4.15;;;2.28;;
46835;SDS011;32573;51.290;6.926;2023-08-12T07:45:50;5.22;;;2.15;;
46835;SDS011;32573;51.290;6.926;2023-08-12T07:48:35;4.40;;;2.38;;
46835;SDS011;32573;51.290;6.926;2023-08-12T07:51:04;4.30;;;2.40;;
46835;SDS011;32573;51.290;6.926;2023-08-12T07:53:32;4.50;;;2.67;;
46835;SDS011;32573;51.290;6.926;2023-08-12T07:56:01;5.40;;;3.00;;
46835;SDS011;32573;51.290;6.926;2023-08-12T07:58:31;4.72;;;2.80;;
46835;SDS011;32573;51.290;6.926;2023-08-12T08:01:00;5.47;;;2.70;;
46835;SDS011;32573;51.290;6.926;2023-08-12T08:03:28;4.53;;;2.55;;
46835;SDS011;32573;51.290;6.926;2023-08-12T08:05:56;4.85;;;2.38;;
46835;SDS011;32573;51.290;6.926;2023-08-12T08:08:25;5.38;;;2.63;;
46835;SDS011;32573;51.290;6.926;2023-08-12T08:10:53;4.65;;;2.30;;
46835;SDS011;32573;51.290;6.926;2023-08-12T08:13:22;4.35;;;2.60;;
46835;SDS011;32573;51.290;6.926;2023-08-12T08:15:52;4.32;;;2.35;;
46835;SDS011;32573;51.290;6.926;2023-08-12T08:18:21;4.90;;;2.42;;
46835;SDS011;32573;51.290;6.926;2023-08-12T08:20:49;5.60;;;3.13;;
46835;SDS011;32573;51.290;6.926;2023-08-12T08:23:18;4.82;;;2.50;;
46835;SDS011;32573;51.290;6.926;2023-08-12T08:25:46;4.40;;;2.45;;
46835;SDS011;32573;51.290;6.926;2023-08-12T08:28:15;4.10;;;2.13;;
46835;SDS011;32573;51.290;6.926;2023-08-12T08:30:43;4.72;;;2.42;;
46835;SDS011;32573;51.290;6.926;2023-08-12T08:33:13;4.30;;;2.38;;
46835;SDS011;32573;51.290;6.926;2023-08-12T08:35:41;4.25;;;2.33;;
46835;SDS011;32573;51.290;6.926;2023-08-12T08:38:10;4.40;;;2.50;;
46835;SDS011;32573;51.290;6.926;2023-08-12T08:40:38;4.80;;;2.40;;
46835;SDS011;32573;51.290;6.926;2023-08-12T08:43:07;4.18;;;2.28;;
46835;SDS011;32573;51.290;6.926;2023-08-12T08:45:37;4.50;;;2.53;;
46835;SDS011;32573;51.290;6.926;2023-08-12T08:48:07;4.10;;;2.28;;
46835;SDS011;32573;51.290;6.926;2023-08-12T08:50:39;4.03;;;2.20;;
46835;SDS011;32573;51.290;6.926;2023-08-12T08:53:09;3.72;;;2.38;;
46835;SDS011;32573;51.290;6.926;2023-08-12T08:55:37;3.70;;;2.13;;
46835;SDS011;32573;51.290;6.926;2023-08-12T08:58:06;4.10;;;2.20;;
46835;SDS011;32573;51.290;6.926;2023-08-12T09:00:35;4.47;;;2.40;;
46835;SDS011;32573;51.290;6.926;2023-08-12T09:03:05;4.75;;;1.90;;
46835;SDS011;32573;51.290;6.926;2023-08-12T09:05:36;3.85;;;2.10;;
46835;SDS011;32573;51.290;6.926;2023-08-12T09:08:07;4.28;;;2.05;;
46835;SDS011;32573;51.290;6.926;2023-08-12T09:10:38;5.03;;;2.08;;
46835;SDS011;32573;51.290;6.926;2023-08-12T09:13:08;4.53;;;2.10;;
46835;SDS011;32573;51.290;6.926;2023-08-12T09:15:37;3.92;;;2.00;;
46835;SDS011;32573;51.290;6.926;2023-08-12T09:18:05;3.95;;;1.70;;
46835;SDS011;32573;51.290;6.926;2023-08-12T09:20:34;3.55;;;1.92;;
46835;SDS011;32573;51.290;6.926;2023-08-12T09:23:02;3.92;;;1.90;;
46835;SDS011;32573;51.290;6.926;2023-08-12T09:25:33;3.45;;;1.80;;
46835;SDS011;32573;51.290;6.926;2023-08-12T09:28:02;3.70;;;1.75;;
46835;SDS011;32573;51.290;6.926;2023-08-12T09:30:31;3.72;;;1.75;;
46835;SDS011;32573;51.290;6.926;2023-08-12T09:33:00;3.75;;;1.70;;
46835;SDS011;32573;51.290;6.926;2023-08-12T09:35:32;3.92;;;1.90;;
46835;SDS011;32573;51.290;6.926;2023-08-12T09:38:02;3.63;;;1.73;;
46835;SDS011;32573;51.290;6.926;2023-08-12T09:40:34;3.80;;;1.60;;
46835;SDS011;32573;51.290;6.926;2023-08-12T09:43:03;3.55;;;1.70;;
46835;SDS011;32573;51.290;6.926;2023-08-12T09:45:33;3.10;;;1.40;;
46835;SDS011;32573;51.290;6.926;2023-08-12T09:48:02;3.33;;;1.52;;
46835;SDS011;32573;51.290;6.926;2023-08-12T09:50:31;2.80;;;1.35;;
46835;SDS011;32573;51.290;6.926;2023-08-12T09:53:00;3.28;;;1.50;;
46835;SDS011;32573;51.290;6.926;2023-08-12T09:55:30;3.22;;;1.50;;
46835;SDS011;32573;51.290;6.926;2023-08-12T09:58:05;3.42;;;1.50;;
46835;SDS011;32573;51.290;6.926;2023-08-12T10:00:38;3.30;;;1.50;;
46835;SDS011;32573;51.290;6.926;2023-08-12T10:03:08;4.13;;;1.60;;
46835;SDS011;32573;51.290;6.926;2023-08-12T10:05:41;3.05;;;1.30;;
46835;SDS011;32573;51.290;6.926;2023-08-12T10:08:11;3.10;;;1.25;;
46835;SDS011;32573;51.290;6.926;2023-08-12T10:10:42;3.25;;;1.50;;
46835;SDS011;32573;51.290;6.926;2023-08-12T10:13:21;3.50;;;1.48;;
46835;SDS011;32573;51.290;6.926;2023-08-12T10:15:50;3.40;;;1.38;;
46835;SDS011;32573;51.290;6.926;2023-08-12T10:18:19;2.72;;;1.20;;
46835;SDS011;32573;51.290;6.926;2023-08-12T10:20:50;3.53;;;1.48;;
46835;SDS011;32573;51.290;6.926;2023-08-12T10:23:21;3.50;;;1.30;;
46835;SDS011;32573;51.290;6.926;2023-08-12T10:25:53;3.63;;;1.33;;
46835;SDS011;32573;51.290;6.926;2023-08-12T10:28:24;2.72;;;1.20;;
46835;SDS011;32573;51.290;6.926;2023-08-12T10:30:52;3.00;;;1.50;;
46835;SDS011;32573;51.290;6.926;2023-08-12T10:33:21;2.90;;;1.30;;
46835;SDS011;32573;51.290;6.926;2023-08-12T10:35:49;3.45;;;1.40;;
46835;SDS011;32573;51.290;6.926;2023-08-12T10:38:18;2.95;;;1.30;;
46835;SDS011;32573;51.290;6.926;2023-08-12T10:40:48;2.80;;;1.23;;
46835;SDS011;32573;51.290;6.926;2023-08-12T10:43:17;3.00;;;1.40;;
46835;SDS011;32573;51.290;6.926;2023-08-12T10:45:48;3.28;;;1.50;;
46835;SDS011;32573;51.290;6.926;2023-08-12T10:48:18;2.35;;;1.20;;
46835;SDS011;32573;51.290;6.926;2023-08-12T10:53:22;3.00;;;1.20;;
46835;SDS011;32573;51.290;6.926;2023-08-12T10:55:56;2.78;;;1.10;;
46835;SDS011;32573;51.290;6.926;2023-08-12T10:58:26;2.53;;;1.30;;
46835;SDS011;32573;51.290;6.926;2023-08-12T11:00:57;2.50;;;1.30;;
46835;SDS011;32573;51.290;6.926;2023-08-12T11:03:27;2.47;;;1.20;;
46835;SDS011;32573;51.290;6.926;2023-08-12T11:06:05;2.65;;;1.13;;
46835;SDS011;32573;51.290;6.926;2023-08-12T11:08:33;1.92;;;0.90;;
46835;SDS011;32573;51.290;6.926;2023-08-12T11:11:02;3.25;;;1.20;;
46835;SDS011;32573;51.290;6.926;2023-08-12T11:13:31;1.40;;;0.90;;
46835;SDS011;32573;51.290;6.926;2023-08-12T11:16:07;1.60;;;0.85;;
46835;SDS011;32573;51.290;6.926;2023-08-12T11:18:37;1.85;;;0.80;;
46835;SDS011;32573;51.290;6.926;2023-08-12T11:21:07;1.65;;;0.80;;
46835;SDS011;32573;51.290;6.926;2023-08-12T11:23:36;2.60;;;0.90;;
46835;SDS011;32573;51.290;6.926;2023-08-12T11:26:06;2.08;;;0.90;;
46835;SDS011;32573;51.290;6.926;2023-08-12T11:28:37;1.98;;;0.90;;
46835;SDS011;32573;51.290;6.926;2023-08-12T11:31:07;1.92;;;1.00;;
46835;SDS011;32573;51.290;6.926;2023-08-12T11:33:35;1.75;;;0.80;;
46835;SDS011;32573;51.290;6.926;2023-08-12T11:36:04;2.33;;;1.10;;
46835;SDS011;32573;51.290;6.926;2023-08-12T11:38:33;1.88;;;0.90;;
46835;SDS011;32573;51.290;6.926;2023-08-12T11:41:02;1.90;;;0.90;;
46835;SDS011;32573;51.290;6.926;2023-08-12T11:43:31;1.70;;;0.95;;
46835;SDS011;32573;51.290;6.926;2023-08-12T11:46:00;2.28;;;1.00;;
46835;SDS011;32573;51.290;6.926;2023-08-12T11:48:30;1.42;;;0.82;;
46835;SDS011;32573;51.290;6.926;2023-08-12T11:50:59;1.83;;;0.90;;
46835;SDS011;32573;51.290;6.926;2023-08-12T11:53:27;1.88;;;0.90;;
46835;SDS011;32573;51.290;6.926;2023-08-12T11:55:56;2.20;;;0.90;;
46835;SDS011;32573;51.290;6.926;2023-08-12T11:58:25;2.20;;;0.95;;
46835;SDS011;32573;51.290;6.926;2023-08-12T12:03:39;1.98;;;1.00;;
46835;SDS011;32573;51.290;6.926;2023-08-12T12:06:08;2.47;;;0.90;;
46835;SDS011;32573;51.290;6.926;2023-08-12T12:08:36;2.30;;;0.90;;
46835;SDS011;32573;51.290;6.926;2023-08-12T12:11:06;1.92;;;0.88;;
46835;SDS011;32573;51.290;6.926;2023-08-12T12:13:35;2.00;;;0.88;;
46835;SDS011;32573;51.290;6.926;2023-08-12T12:16:04;2.05;;;0.93;;
46835;SDS011;32573;51.290;6.926;2023-08-12T12:18:39;1.65;;;0.80;;
46835;SDS011;32573;51.290;6.926;2023-08-12T12:21:08;2.13;;;0.90;;
46835;SDS011;32573;51.290;6.926;2023-08-12T12:23:36;1.67;;;0.90;;
46835;SDS011;32573;51.290;6.926;2023-08-12T12:26:05;2.20;;;1.00;;
46835;SDS011;32573;51.290;6.926;2023-08-12T12:28:34;1.30;;;0.80;;
46835;SDS011;32573;51.290;6.926;2023-08-12T12:31:02;1.40;;;0.80;;
46835;SDS011;32573;51.290;6.926;2023-08-12T12:33:31;1.65;;;0.85;;
46835;SDS011;32573;51.290;6.926;2023-08-12T12:36:01;2.00;;;0.90;;
46835;SDS011;32573;51.290;6.926;2023-08-12T12:38:31;2.05;;;0.90;;
46835;SDS011;32573;51.290;6.926;2023-08-12T12:41:00;2.83;;;0.95;;
46835;SDS011;32573;51.290;6.926;2023-08-12T12:43:28;1.42;;;0.80;;
46835;SDS011;32573;51.290;6.926;2023-08-12T12:45:57;2.00;;;0.90;;
46835;SDS011;32573;51.290;6.926;2023-08-12T12:48:25;2.00;;;0.90;;
46835;SDS011;32573;51.290;6.926;2023-08-12T12:50:54;2.03;;;0.90;;
46835;SDS011;32573;51.290;6.926;2023-08-12T12:53:24;2.35;;;1.10;;
46835;SDS011;32573;51.290;6.926;2023-08-12T12:55:52;2.30;;;1.00;;
46835;SDS011;32573;51.290;6.926;2023-08-12T12:58:23;2.25;;;1.00;;
46835;SDS011;32573;51.290;6.926;2023-08-12T13:00:52;2.30;;;0.98;;
46835;SDS011;32573;51.290;6.926;2023-08-12T13:03:20;2.33;;;1.02;;
46835;SDS011;32573;51.290;6.926;2023-08-12T13:05:49;2.38;;;1.10;;
46835;SDS011;32573;51.290;6.926;2023-08-12T13:08:18;2.90;;;1.20;;
46835;SDS011;32573;51.290;6.926;2023-08-12T13:10:48;2.47;;;1.00;;
46835;SDS011;32573;51.290;6.926;2023-08-12T13:13:17;2.70;;;1.30;;
46835;SDS011;32573;51.290;6.926;2023-08-12T13:15:46;3.05;;;1.27;;
46835;SDS011;32573;51.290;6.926;2023-08-12T13:18:15;2.75;;;1.20;;
46835;SDS011;32573;51.290;6.926;2023-08-12T13:20:44;2.65;;;1.13;;
46835;SDS011;32573;51.290;6.926;2023-08-12T13:23:13;3.22;;;1.30;;
46835;SDS011;32573;51.290;6.926;2023-08-12T13:25:42;4.57;;;1.67;;
46835;SDS011;32573;51.290;6.926;2023-08-12T13:28:12;4.55;;;1.50;;
46835;SDS011;32573;51.290;6.926;2023-08-12T13:30:40;3.20;;;1.42;;
46835;SDS011;32573;51.290;6.926;2023-08-12T13:33:09;3.88;;;1.70;;
46835;SDS011;32573;51.290;6.926;2023-08-12T13:35:37;4.07;;;2.00;;
46835;SDS011;32573;51.290;6.926;2023-08-12T13:38:06;4.65;;;2.05;;
46835;SDS011;32573;51.290;6.926;2023-08-12T13:40:34;4.10;;;1.98;;
46835;SDS011;32573;51.290;6.926;2023-08-12T13:43:03;4.30;;;2.22;;
46835;SDS011;32573;51.290;6.926;2023-08-12T13:45:33;4.30;;;2.10;;
46835;SDS011;32573;51.290;6.926;2023-08-12T13:48:01;3.55;;;1.80;;
46835;SDS011;32573;51.290;6.926;2023-08-12T13:50:30;3.92;;;1.98;;
46835;SDS011;32573;51.290;6.926;2023-08-12T13:52:59;3.70;;;1.80;;
46835;SDS011;32573;51.290;6.926;2023-08-12T13:55:28;3.50;;;1.80;;
46835;SDS011;32573;51.290;6.926;2023-08-12T13:57:56;3.60;;;2.00;;
46835;SDS011;32573;51.290;6.926;2023-08-12T14:00:25;3.60;;;1.80;;
46835;SDS011;32573;51.290;6.926;2023-08-12T14:02:55;3.65;;;1.70;;
46835;SDS011;32573;51.290;6.926;2023-08-12T14:05:23;3.70;;;1.70;;
46835;SDS011;32573;51.290;6.926;2023-08-12T14:07:52;3.80;;;1.90;;
46835;SDS011;32573;51.290;6.926;2023-08-12T14:10:20;3.95;;;2.00;;
46835;SDS011;32573;51.290;6.926;2023-08-12T14:12:49;3.20;;;1.60;;
46835;SDS011;32573;51.290;6.926;2023-08-12T14:15:19;3.60;;;1.88;;
46835;SDS011;32573;51.290;6.926;2023-08-12T14:17:47;3.22;;;1.52;;
46835;SDS011;32573;51.290;6.926;2023-08-12T14:20:17;3.58;;;1.70;;
46835;SDS011;32573;51.290;6.926;2023-08-12T14:22:46;3.25;;;1.60;;
46835;SDS011;32573;51.290;6.926;2023-08-12T14:25:15;4.25;;;1.70;;
46835;SDS011;32573;51.290;6.926;2023-08-12T14:27:43;3.58;;;1.83;;
46835;SDS011;32573;51.290;6.926;2023-08-12T14:30:12;3.10;;;1.60;;
46835;SDS011;32573;51.290;6.926;2023-08-12T14:32:41;3.15;;;1.65;;
46835;SDS011;32573;51.290;6.926;2023-08-12T14:35:09;3.63;;;1.90;;
46835;SDS011;32573;51.290;6.926;2023-08-12T14:37:39;3.65;;;1.77;;
46835;SDS011;32573;51.290;6.926;2023-08-12T14:40:08;3.40;;;1.80;;
46835;SDS011;32573;51.290;6.926;2023-08-12T14:42:37;3.38;;;1.60;;
46835;SDS011;32573;51.290;6.926;2023-08-12T14:45:06;3.17;;;1.50;;
46835;SDS011;32573;51.290;6.926;2023-08-12T14:47:36;3.40;;;1.80;;
46835;SDS011;32573;51.290;6.926;2023-08-12T14:50:04;2.65;;;1.40;;
46835;SDS011;32573;51.290;6.926;2023-08-12T14:52:33;3.45;;;1.70;;
46835;SDS011;32573;51.290;6.926;2023-08-12T14:55:04;2.88;;;1.67;;
46835;SDS011;32573;51.290;6.926;2023-08-12T14:57:33;3.95;;;1.67;;
46835;SDS011;32573;51.290;6.926;2023-08-12T15:00:02;4.20;;;1.70;;
46835;SDS011;32573;51.290;6.926;2023-08-12T15:02:33;3.47;;;1.80;;
46835;SDS011;32573;51.290;6.926;2023-08-12T15:05:02;3.45;;;1.52;;